Time;durP1;ratioP1;P1;durP2;ratioP2;P2;SDS_P1;SDS_P2;PMS_P1;PMS_P2;Temp;Humidity;BMP_temperature;BMP_pressure;BME280_temperature;BME280_humidity;BME280_pressure;Samples;Min_cycle;Max_cycle;Signal;HPM_P1;HPM_P2
2022/02/03 00:01:00;;;;;;;28.70;20.33;;;;;;;1.07;100.00;96438.72;5010628;28;20041;-62
2022/02/03 00:06:14;;;;;;;24.55;18.90;;;;;;;0.99;100.00;96439.03;5008999;28;20070;-62
2022/02/03 00:09:19;;;;;;;16.80;14.68;;;;;;;0.96;100.00;96437.44;5012008;28;20486;-62
2022/02/03 00:22:00;;;;;;;12.50;10.95;;;;;;;0.98;100.00;96437.38;5010955;28;20041;-62
2022/02/03 00:25:20;;;;;;;11.35;10.25;;;;;;;0.98;100.00;96445.13;5010983;28;20121;-62
2022/02/03 00:28:20;;;;;;;12.30;11.10;;;;;;;1.00;100.00;96448.53;5010747;28;20509;-62
2022/02/03 00:33:25;;;;;;;15.45;13.50;;;;;;;0.96;100.00;96441.78;5010787;28;20068;-62
2022/02/03 00:49:12;;;;;;;10.60;9.50;;;;;;;0.77;100.00;96447.72;5010020;28;20029;-62
2022/02/03 00:51:42;;;;;;;10.60;9.60;;;;;;;0.78;100.00;96439.06;5010272;28;20414;-62
2022/02/03 00:54:10;;;;;;;11.85;10.73;;;;;;;0.79;100.00;96439.88;5008854;28;20030;-62
2022/02/03 00:56:49;;;;;;;11.68;10.45;;;;;;;0.77;100.00;96446.88;5010437;28;20544;-62
2022/02/03 00:59:34;;;;;;;12.63;10.82;;;;;;;0.76;100.00;96445.19;5010207;28;20101;-62
2022/02/03 01:02:05;;;;;;;11.23;10.03;;;;;;;0.73;100.00;96440.16;5009382;28;20694;-62
2022/02/03 01:04:31;;;;;;;13.95;10.35;;;;;;;0.69;100.00;96444.59;5022209;28;20409;-62
2022/02/03 01:06:58;;;;;;;12.68;10.00;;;;;;;0.66;100.00;96436.97;5009736;28;20033;-62
2022/02/03 01:09:31;;;;;;;13.23;10.15;;;;;;;0.54;100.00;96436.53;5008537;28;20030;-62
2022/02/03 01:12:15;;;;;;;11.15;9.95;;;;;;;0.54;100.00;96436.53;5009671;28;20478;-62
2022/02/03 01:45:24;;;;;;;7.47;6.75;;;;;;;0.33;100.00;96416.66;5014019;28;20284;-62
2022/02/03 01:48:21;;;;;;;8.30;7.30;;;;;;;0.32;100.00;96410.66;5011830;28;20029;-62
2022/02/03 01:53:33;;;;;;;7.63;6.68;;;;;;;0.22;100.00;96415.38;5013135;28;20139;-62
2022/02/03 01:56:10;;;;;;;11.68;6.57;;;;;;;0.18;100.00;96410.34;5012249;28;20065;-62
2022/02/03 01:58:45;;;;;;;8.00;7.20;;;;;;;0.17;100.00;96406.94;5013727;28;20034;-62
2022/02/03 02:01:30;;;;;;;7.25;6.65;;;;;;;0.14;100.00;96413.06;5010900;28;20038;-62
2022/02/03 02:04:17;;;;;;;7.78;7.03;;;;;;;0.08;100.00;96413.31;5014151;28;20025;-62
2022/02/03 02:06:52;;;;;;;7.55;6.75;;;;;;;-0.06;100.00;96410.41;5013407;28;20156;-62
2022/02/03 02:09:27;;;;;;;8.07;7.27;;;;;;;-0.12;100.00;96408.06;5012329;28;20042;-62
2022/02/03 02:12:21;;;;;;;7.78;7.07;;;;;;;-0.20;100.00;96403.19;5010058;28;20034;-62
2022/02/03 02:37:39;;;;;;;6.15;5.43;;;;;;;-0.61;100.00;96389.13;5012828;28;20099;-62
2022/02/03 02:43:08;;;;;;;13.07;10.02;;;;;;;-0.63;100.00;96383.19;5012418;28;20042;-62
2022/02/03 02:45:59;;;;;;;10.25;9.27;;;;;;;-0.67;100.00;96379.03;5013329;28;20029;-62
2022/02/03 02:48:39;;;;;;;9.73;8.82;;;;;;;-0.65;100.00;96366.88;5011963;28;20571;-61
2022/02/03 02:51:20;;;;;;;9.20;7.57;;;;;;;-0.63;100.00;96375.41;5012460;28;20053;-62
2022/02/03 02:59:29;;;;;;;9.25;8.43;;;;;;;-0.74;100.00;96383.56;5012112;28;20026;-62
2022/02/03 03:36:08;;;;;;;5.93;5.32;;;;;;;-0.96;100.00;96356.78;4980552;28;20108;-61
2022/02/03 03:38:36;;;;;;;7.00;6.30;;;;;;;-0.98;100.00;96356.88;5011318;28;20038;-61
2022/02/03 03:41:03;;;;;;;7.22;5.47;;;;;;;-1.03;100.00;96359.59;5011704;28;20037;-61
2022/02/03 03:43:35;;;;;;;5.30;4.82;;;;;;;-1.06;100.00;96351.09;5011611;28;20113;-62
2022/02/03 03:46:27;;;;;;;5.65;5.15;;;;;;;-1.10;100.00;96354.72;5010618;28;20653;-62
2022/02/03 03:49:13;;;;;;;6.82;5.90;;;;;;;-1.13;100.00;96349.66;5010375;28;20053;-62
2022/02/03 03:51:58;;;;;;;;;;;;;;;-1.18;100.00;96342.03;5012044;28;20034;-62
2022/02/03 03:54:36;;;;;;;5.05;4.55;;;;;;;-1.19;100.00;96343.81;5011131;28;20428;-61
2022/02/03 04:00:19;;;;;;;;;;;;;;;-1.20;100.00;96346.44;5012069;28;20037;-61
2022/02/03 05:03:18;;;;;;;8.88;7.05;;;;;;;-1.43;100.00;96342.91;5009623;28;20126;-62
2022/02/03 05:06:20;;;;;;;7.13;6.35;;;;;;;-1.40;100.00;96344.56;5007722;28;20164;-62
2022/02/03 05:20:48;;;;;;;7.38;6.65;;;;;;;-1.52;100.00;96325.97;5008618;28;20046;-62
2022/02/03 05:26:31;;;;;;;6.68;6.00;;;;;;;-1.58;100.00;96318.44;5009542;28;20068;-62
2022/02/03 05:44:46;;;;;;;7.90;6.82;;;;;;;-1.72;100.00;96316.34;5007296;28;20038;-62
2022/02/03 06:01:23;;;;;;;7.78;7.18;;;;;;;-1.82;100.00;96315.78;5008896;28;20413;-62
2022/02/03 06:14:37;;;;;;;8.02;7.18;;;;;;;-1.93;100.00;96305.81;5012169;28;20045;-62
2022/02/03 06:17:29;;;;;;;7.38;6.68;;;;;;;-1.91;100.00;96308.34;5012678;28;20421;-62
2022/02/03 06:22:55;;;;;;;10.18;8.55;;;;;;;-1.87;100.00;96312.53;4983256;28;20045;-62
2022/02/03 06:27:49;;;;;;;11.98;8.77;;;;;;;-1.90;100.00;96320.34;5012114;28;20117;-62
2022/02/03 06:30:18;;;;;;;10.80;9.05;;;;;;;-1.94;100.00;96316.19;5011527;28;20034;-62
2022/02/03 06:32:44;;;;;;;9.63;8.32;;;;;;;-1.96;100.00;96317.97;5011389;28;20072;-62
2022/02/03 06:35:12;;;;;;;8.80;8.10;;;;;;;-2.00;100.00;96326.72;5012491;28;20048;-62
2022/02/03 06:37:38;;;;;;;11.48;10.27;;;;;;;-2.04;100.00;96323.38;5012356;28;20033;-62
2022/02/03 06:40:07;;;;;;;10.35;9.35;;;;;;;-2.03;100.00;96327.63;5011892;28;20084;-62
2022/02/03 06:42:33;;;;;;;9.63;8.73;;;;;;;-2.04;100.00;96321.66;5012026;28;20088;-62
2022/02/03 06:48:00;;;;;;;12.07;10.73;;;;;;;-2.11;100.00;96312.41;5008981;28;20086;-62
2022/02/03 06:50:41;;;;;;;12.05;10.75;;;;;;;-2.11;100.00;96317.56;5011173;28;20512;-61
2022/02/03 06:53:12;;;;;;;17.35;14.20;;;;;;;-2.05;100.00;96319.09;5011371;28;20470;-61
2022/02/03 06:55:47;;;;;;;14.60;13.20;;;;;;;-1.97;100.00;96324.88;5011769;28;20037;-63
2022/02/03 06:58:24;;;;;;;17.85;14.15;;;;;;;-1.99;100.00;96316.34;5008872;28;20065;-62
2022/02/03 07:03:30;;;;;;;15.50;13.32;;;;;;;-2.07;100.00;96321.75;5012131;28;20133;-65
2022/02/03 07:05:56;;;;;;;21.83;18.13;;;;;;;-2.06;100.00;96323.44;5010426;28;20037;-61
2022/02/03 07:08:23;;;;;;;39.67;32.83;;;;;;;-2.00;100.00;96324.97;5011671;28;20026;-61
2022/02/03 07:10:51;;;;;;;36.83;27.15;;;;;;;-1.95;100.00;96327.41;5011360;28;20029;-61
2022/02/03 07:13:17;;;;;;;33.38;26.95;;;;;;;-1.95;100.00;96333.41;5012365;28;20025;-55
2022/02/03 07:15:43;;;;;;;21.90;18.85;;;;;;;-1.97;100.00;96331.78;5010450;28;20026;-59
2022/02/03 07:18:08;;;;;;;21.20;19.02;;;;;;;-2.00;100.00;96326.72;5004725;28;20528;-60
2022/02/03 07:20:34;;;;;;;21.50;18.17;;;;;;;-2.02;100.00;96325.03;5010593;28;20148;-60
2022/02/03 07:23:01;;;;;;;20.65;17.42;;;;;;;-2.00;100.00;96327.53;5011470;28;20022;-61
2022/02/03 07:25:26;;;;;;;20.17;17.10;;;;;;;-2.00;100.00;96322.38;5011396;28;20041;-60
2022/02/03 07:27:51;;;;;;;25.83;19.33;;;;;;;-1.96;100.00;96313.66;5011545;28;20033;-60
2022/02/03 07:30:17;;;;;;;20.65;17.58;;;;;;;-1.95;100.00;96306.75;5011300;28;20537;-60
2022/02/03 07:32:42;;;;;;;19.27;16.58;;;;;;;-1.93;100.00;96307.53;5011757;28;20029;-60
2022/02/03 07:35:09;;;;;;;16.95;15.10;;;;;;;-1.91;100.00;96308.34;5011867;28;20105;-59
2022/02/03 07:37:46;;;;;;;16.20;13.98;;;;;;;-1.91;100.00;96301.44;5009701;28;20065;-59
2022/02/03 07:40:13;;;;;;;17.02;15.20;;;;;;;-1.87;100.00;96303.03;5008962;28;20053;-59
2022/02/03 07:42:39;;;;;;;17.92;16.02;;;;;;;-1.80;100.00;96300.22;5008360;28;20493;-58
2022/02/03 07:45:06;;;;;;;20.73;15.98;;;;;;;-1.75;100.00;96288.88;5011281;28;20026;-59
2022/02/03 07:47:32;;;;;;;15.90;14.38;;;;;;;-1.73;100.00;96291.41;5010357;28;20033;-59
2022/02/03 07:49:57;;;;;;;13.20;11.90;;;;;;;-1.70;100.00;96287.84;5012034;28;20109;-59
2022/02/03 07:52:22;;;;;;;14.07;12.07;;;;;;;-1.70;100.00;96283.56;5011384;28;20080;-61
2022/02/03 07:54:48;;;;;;;11.52;10.35;;;;;;;-1.68;100.00;96278.31;5010308;28;20022;-59
2022/02/03 07:57:14;;;;;;;18.20;12.88;;;;;;;-1.66;100.00;96271.38;5009026;28;20626;-60
2022/02/03 07:59:40;;;;;;;11.82;10.45;;;;;;;-1.67;100.00;96269.69;5010309;28;20033;-60
2022/02/03 08:02:07;;;;;;;10.73;9.63;;;;;;;-1.63;100.00;96271.28;5010583;28;20036;-60
2022/02/03 08:04:35;;;;;;;11.73;10.52;;;;;;;-1.61;100.00;96265.16;5010900;28;20092;-60
2022/02/03 08:07:01;;;;;;;11.48;10.27;;;;;;;-1.61;100.00;96259.16;5009798;28;20088;-59
2022/02/03 08:09:36;;;;;;;10.55;9.50;;;;;;;-1.63;100.00;96253.22;5009057;28;20105;-59
2022/02/03 08:12:08;;;;;;;11.43;10.40;;;;;;;-1.62;100.00;96249.72;5008477;28;20029;-60
2022/02/03 08:14:41;;;;;;;11.13;9.95;;;;;;;-1.60;100.00;96240.19;5009834;28;20941;-60
2022/02/03 08:17:11;;;;;;;10.88;9.77;;;;;;;-1.61;100.00;96239.31;5012953;28;20050;-60
2022/02/03 08:19:56;;;;;;;11.30;10.07;;;;;;;-1.57;100.00;96232.31;5009486;28;20152;-60
2022/02/03 08:22:37;;;;;;;11.63;9.63;;;;;;;-1.53;100.00;96233.91;5009836;28;20030;-60
2022/02/03 08:25:10;;;;;;;12.20;10.63;;;;;;;-1.50;100.00;96230.38;5011059;28;20025;-60
2022/02/03 08:27:53;;;;;;;12.57;11.43;;;;;;;-1.51;100.00;96236.44;5007940;28;20053;-60
2022/02/03 08:32:47;;;;;;;13.07;11.60;;;;;;;-1.56;100.00;96234.00;5006411;28;20117;-60
2022/02/03 08:35:34;;;;;;;13.98;12.07;;;;;;;-1.51;100.00;96226.94;5002859;28;20030;-60
2022/02/03 08:38:06;;;;;;;17.25;14.82;;;;;;;-1.40;100.00;96225.72;5006483;28;20494;-60
2022/02/03 08:40:43;;;;;;;21.05;16.52;;;;;;;-1.34;100.00;96235.81;5009113;28;20040;-60
2022/02/03 08:43:11;;;;;;;20.17;17.85;;;;;;;-1.34;100.00;96234.06;5005567;28;20053;-60
2022/02/03 08:45:36;;;;;;;29.20;21.88;;;;;;;-1.34;100.00;96222.91;5005770;28;20026;-60
2022/02/03 08:48:02;;;;;;;28.90;19.75;;;;;;;-1.25;100.00;96227.72;5006360;28;20080;-59
2022/02/03 08:50:28;;;;;;;28.77;20.38;;;;;;;-1.19;100.00;96221.50;5006097;28;20030;-60
2022/02/03 08:53:11;;;;;;;28.13;19.10;;;;;;;-1.11;100.00;96209.13;5007801;28;20025;-59
2022/02/03 09:36:12;;;;;;;19.70;14.23;;;;;;;3.26;100.00;96191.78;5007861;28;20116;-62
2022/02/03 09:42:06;;;;;;;8.93;8.02;;;;;;;3.94;96.68;96192.34;5009221;28;20494;-59
2022/02/03 09:58:14;;;;;;;6.68;6.07;;;;;;;6.34;85.49;96157.50;5012649;28;20080;-57
2022/02/03 10:01:07;;;;;;;4.10;3.83;;;;;;;6.47;85.55;96155.72;5012953;28;20065;-53
2022/02/03 10:03:50;;;;;;;4.18;3.88;;;;;;;6.46;81.04;96156.66;5012199;28;20370;-55
2022/02/03 10:06:24;;;;;;;6.00;5.45;;;;;;;6.53;83.04;96157.94;5016900;28;20045;-51
2022/02/03 10:08:55;;;;;;;5.97;4.97;;;;;;;6.72;85.04;96167.94;5012681;28;20456;-56
2022/02/03 10:11:22;;;;;;;5.70;5.20;;;;;;;6.72;81.79;96160.09;5012285;28;20500;-55
2022/02/03 10:13:55;;;;;;;11.10;10.00;;;;;;;6.80;83.96;96174.41;5010275;28;20049;-55
2022/02/03 10:16:27;;;;;;;8.45;7.55;;;;;;;6.56;82.90;96172.56;5012380;28;20026;-53
2022/02/03 10:19:18;;;;;;;8.60;7.25;;;;;;;6.23;83.29;96179.16;5008693;28;20061;-55
2022/02/03 10:21:48;;;;;;;10.48;5.95;;;;;;;6.01;83.15;96172.75;5011164;28;20048;-54
2022/02/03 10:24:16;;;;;;;10.30;8.20;;;;;;;5.85;85.44;96178.09;5012244;28;20032;-56
2022/02/03 10:26:46;;;;;;;4.90;4.50;;;;;;;5.97;85.40;96173.84;5012499;28;20109;-54
2022/02/03 10:29:17;;;;;;;8.65;5.28;;;;;;;6.42;83.42;96170.88;5010800;28;20398;-57
2022/02/03 10:31:44;;;;;;;3.30;3.10;;;;;;;6.80;81.50;96167.41;5011246;28;20121;-57
2022/02/03 10:34:14;;;;;;;3.25;3.03;;;;;;;7.05;79.83;96163.06;5010758;28;20026;-56
2022/02/03 10:55:36;;;;;;;2.83;2.63;;;;;;;7.87;76.01;96119.66;5010164;28;20041;-54
2022/02/03 11:10:56;;;;;;;5.32;4.82;;;;;;;8.73;73.29;96077.31;5011698;28;20022;-51
2022/02/03 11:13:29;;;;;;;6.30;5.70;;;;;;;8.98;71.28;96078.00;5010072;28;20112;-52
2022/02/03 11:15:57;;;;;;;6.03;5.07;;;;;;;9.24;69.50;96075.06;5012529;28;20060;-53
2022/02/03 11:18:25;;;;;;;4.00;3.70;;;;;;;9.57;69.59;96065.38;5006986;28;20042;-55
2022/02/03 11:20:51;;;;;;;2.90;2.70;;;;;;;9.72;69.14;96056.22;5010698;28;20034;-54
2022/02/03 11:23:31;;;;;;;3.25;2.97;;;;;;;9.54;68.66;96049.88;5011762;28;20077;-54
2022/02/03 11:26:07;;;;;;;3.72;3.47;;;;;;;9.03;70.06;96052.22;5011278;28;20265;-54
2022/02/03 11:53:33;;;;;;;2.85;2.65;;;;;;;10.74;63.21;95980.97;5011381;28;20030;-54
2022/02/03 12:04:42;;;;;;;3.63;3.40;;;;;;;11.57;60.61;95944.59;5010274;28;20041;-58
2022/02/03 12:10:40;;;;;;;3.15;2.85;;;;;;;11.11;61.83;95926.75;4930040;29;19979;-58
2022/02/03 12:16:23;;;;;;;2.80;2.60;;;;;;;11.68;60.43;95911.97;5011893;28;20122;-57
2022/02/03 12:21:58;;;;;;;9.90;7.13;;;;;;;11.81;59.71;95903.72;5007361;28;20026;-57
2022/02/03 12:27:11;;;;;;;3.58;3.17;;;;;;;11.90;58.96;95901.06;5009321;28;20133;-58
2022/02/03 12:40:04;;;;;;;7.25;3.60;;;;;;;12.51;56.55;95876.91;5008968;28;20528;-59
2022/02/03 12:45:15;;;;;;;4.70;4.30;;;;;;;12.24;56.59;95873.28;5009820;28;20018;-59
2022/02/03 12:47:44;;;;;;;3.13;2.92;;;;;;;11.98;56.58;95868.66;5008117;28;20041;-59
2022/02/03 12:50:21;;;;;;;4.60;2.75;;;;;;;12.04;57.79;95870.75;5009601;28;20497;-58
2022/02/03 12:52:46;;;;;;;3.03;2.80;;;;;;;12.11;58.79;95868.34;5006322;28;20497;-59
2022/02/03 12:55:33;;;;;;;3.75;3.45;;;;;;;12.17;57.34;95856.38;4997989;28;20065;-58
2022/02/03 12:58:05;;;;;;;2.90;2.70;;;;;;;11.82;57.85;95858.75;5003099;28;20664;-57
2022/02/03 13:00:45;;;;;;;2.90;2.70;;;;;;;11.80;57.78;95855.44;4999899;28;20029;-56
2022/02/03 13:03:17;;;;;;;2.83;2.63;;;;;;;11.62;58.38;95844.81;5007804;28;20022;-57
2022/02/03 13:05:55;;;;;;;2.88;2.67;;;;;;;11.24;58.73;95844.78;5006943;28;20053;-58
2022/02/03 13:08:32;;;;;;;2.88;2.67;;;;;;;11.23;59.42;95844.94;5007678;28;20044;-58
2022/02/03 13:11:26;;;;;;;4.22;2.55;;;;;;;11.46;58.98;95834.88;5006810;28;20028;-58
2022/02/03 13:16:31;;;;;;;3.00;2.80;;;;;;;12.44;57.22;95820.38;5008885;28;20488;-57
2022/02/03 13:26:44;;;;;;;3.20;3.00;;;;;;;12.71;56.80;95816.81;5009344;28;20030;-57
2022/02/03 13:29:16;;;;;;;3.10;2.90;;;;;;;12.85;54.40;95814.63;5007986;28;20041;-58
2022/02/03 13:32:05;;;;;;;3.28;3.08;;;;;;;13.26;55.70;95820.22;5005848;28;20018;-58
2022/02/03 13:34:37;;;;;;;7.28;4.70;;;;;;;13.57;55.54;95816.25;5006359;28;20449;-57
2022/02/03 13:37:22;;;;;;;3.55;3.25;;;;;;;13.69;54.70;95817.66;5007442;28;20052;-57
2022/02/03 13:40:00;;;;;;;8.23;5.63;;;;;;;13.68;54.57;95818.63;5008695;28;20117;-59
2022/02/03 13:42:29;;;;;;;5.70;5.00;;;;;;;13.61;52.16;95828.19;5006783;28;20044;-57
2022/02/03 13:45:06;;;;;;;7.57;4.68;;;;;;;13.87;53.24;95830.78;5008256;28;20072;-57
2022/02/03 13:47:35;;;;;;;4.32;4.03;;;;;;;13.28;54.68;95839.38;5005318;28;20668;-55
2022/02/03 13:50:03;;;;;;;3.58;3.28;;;;;;;12.88;55.85;95838.91;5008315;28;20559;-57
2022/02/03 13:52:34;;;;;;;4.85;4.45;;;;;;;12.37;56.70;95840.44;5007227;28;20088;-57
2022/02/03 14:18:59;;;;;;;5.45;4.95;;;;;;;11.68;59.64;95862.69;5008042;28;20038;-56
2022/02/03 14:21:29;;;;;;;6.93;6.20;;;;;;;11.26;60.33;95869.19;5006700;28;20045;-53
2022/02/03 14:29:43;;;;;;;7.13;4.53;;;;;;;10.78;61.97;95888.50;4975642;28;20046;-57
2022/02/03 14:32:10;;;;;;;5.47;5.03;;;;;;;10.58;62.19;95881.44;5011861;28;20407;-55
2022/02/03 14:34:36;;;;;;;5.43;4.95;;;;;;;10.18;63.82;95880.53;5011131;28;20460;-58
2022/02/03 14:37:57;;;;;;;6.38;5.50;;;;;;;10.04;64.28;95873.81;5012465;28;20038;-57
2022/02/03 14:40:18;;;;;;;7.70;5.93;;;;;;;10.38;63.72;95859.47;5000953;28;20038;-53
2022/02/03 14:42:45;;;;;;;6.15;5.45;;;;;;;9.94;64.48;95846.66;5011394;28;20128;-56
2022/02/03 14:45:13;;;;;;;6.30;5.30;;;;;;;9.67;66.31;95848.09;5010670;28;20030;-56
2022/02/03 14:47:40;;;;;;;6.90;5.57;;;;;;;9.98;65.38;95844.59;5009972;28;20021;-55
2022/02/03 14:50:06;;;;;;;6.60;5.47;;;;;;;9.61;65.95;95851.25;5011648;28;20029;-53
2022/02/03 14:53:20;;;;;;;6.40;5.68;;;;;;;9.57;66.37;95840.19;5010875;28;20049;-52
2022/02/03 14:58:07;;;;;;;6.72;5.30;;;;;;;9.85;65.14;95826.44;5011050;28;20080;-55
2022/02/03 15:00:34;;;;;;;8.07;6.03;;;;;;;9.64;65.99;95823.88;5009112;28;20431;-55
2022/02/03 15:02:59;;;;;;;6.93;6.13;;;;;;;9.51;66.81;95829.34;5010846;28;20413;-55
2022/02/03 15:05:36;;;;;;;7.25;6.28;;;;;;;9.76;66.43;95835.97;5011419;28;20026;-55
2022/02/03 15:08:10;;;;;;;7.80;6.57;;;;;;;9.64;66.88;95834.38;5010513;28;20030;-57
2022/02/03 15:16:01;;;;;;;10.73;8.20;;;;;;;9.57;67.05;95849.84;5010023;28;20045;-53
2022/02/03 15:18:29;;;;;;;8.35;7.47;;;;;;;9.44;68.65;95845.66;5009520;28;20058;-56
2022/02/03 15:20:55;;;;;;;8.65;7.20;;;;;;;9.27;69.39;95844.44;5010335;28;20470;-56
2022/02/03 15:23:21;;;;;;;12.15;7.68;;;;;;;9.23;69.86;95843.03;5010962;28;20144;-54
2022/02/03 15:25:46;;;;;;;11.55;7.65;;;;;;;9.16;70.31;95842.72;5010155;28;20038;-55
2022/02/03 15:28:11;;;;;;;8.13;7.30;;;;;;;9.15;70.35;95840.25;5009204;28;20109;-54
2022/02/03 15:30:37;;;;;;;7.05;6.45;;;;;;;9.11;70.32;95850.16;5010166;28;20029;-54
2022/02/03 15:33:03;;;;;;;11.82;7.05;;;;;;;9.09;70.55;95849.47;5009334;28;20029;-54
2022/02/03 15:35:36;;;;;;;5.30;4.78;;;;;;;8.99;72.25;95852.03;5008893;28;20037;-55
2022/02/03 15:38:04;;;;;;;5.82;3.38;;;;;;;8.86;73.63;95859.28;5010464;28;20061;-56
2022/02/03 15:40:30;;;;;;;3.22;3.03;;;;;;;8.75;73.91;95860.16;5010063;28;20034;-54
2022/02/03 15:43:06;;;;;;;7.43;6.10;;;;;;;8.67;75.06;95854.69;5010292;28;20493;-56
2022/02/03 15:45:42;;;;;;;;;;;;;;;8.64;74.17;95849.69;5010021;28;20037;-54
2022/02/03 16:03:33;;;;;;;6.03;5.50;;;;;;;8.15;74.91;95853.50;5010317;28;20087;-54
2022/02/03 16:17:06;;;;;;;9.38;8.07;;;;;;;7.64;77.80;95861.94;4984383;28;20042;-52
2022/02/03 16:19:47;;;;;;;16.52;7.75;;;;;;;7.51;78.07;95864.66;5009019;28;20058;-56
2022/02/03 16:22:25;;;;;;;12.40;7.88;;;;;;;7.39;77.93;95861.22;5008912;28;20110;-52
2022/02/03 16:24:58;;;;;;;5.45;4.38;;;;;;;7.28;77.86;95862.03;5008109;28;20044;-55
2022/02/03 16:53:55;;;;;;;11.05;9.32;;;;;;;6.48;81.40;95874.88;5007600;28;20053;-54
2022/02/03 16:56:23;;;;;;;9.93;7.97;;;;;;;6.36;81.50;95873.19;5007970;28;20053;-61
2022/02/03 16:58:49;;;;;;;8.65;7.78;;;;;;;6.21;82.18;95878.56;5010159;28;20481;-62
2022/02/03 17:01:14;;;;;;;12.13;8.63;;;;;;;6.10;83.19;95886.34;5008810;28;20041;-61
2022/02/03 17:03:40;;;;;;;12.32;9.13;;;;;;;5.99;83.42;95874.03;5010345;28;20037;-61
2022/02/03 17:06:06;;;;;;;13.98;11.38;;;;;;;5.88;84.76;95880.81;5005201;28;20022;-62
2022/02/03 17:08:31;;;;;;;14.35;11.20;;;;;;;5.77;85.62;95869.47;5009869;28;20136;-64
2022/02/03 17:10:57;;;;;;;30.00;18.00;;;;;;;5.71;86.26;95868.09;5002776;28;20569;-62
2022/02/03 17:13:22;;;;;;;55.33;25.75;;;;;;;5.63;86.08;95865.22;5008585;28;20092;-62
2022/02/03 17:15:48;;;;;;;152.40;59.83;;;;;;;5.55;85.59;95863.97;5008858;28;20108;-63
2022/02/03 17:18:13;;;;;;;173.90;61.50;;;;;;;5.45;86.11;95869.00;5009640;28;20056;-63
2022/02/03 17:20:41;;;;;;;33.45;16.08;;;;;;;5.45;85.09;95873.38;5010458;28;20464;-62
2022/02/03 17:23:09;;;;;;;38.85;21.50;;;;;;;5.36;85.84;95864.38;5009537;28;20465;-62
2022/02/03 17:25:46;;;;;;;38.17;20.02;;;;;;;5.25;86.87;95864.31;5009828;28;20413;-62
2022/02/03 17:30:44;;;;;;;24.58;15.23;;;;;;;5.10;88.12;95869.63;5009669;28;20125;-61
2022/02/03 17:53:41;;;;;;;27.50;21.60;;;;;;;4.82;86.49;95845.38;5006655;28;20441;-64
2022/02/03 18:03:25;;;;;;;45.85;40.78;;;;;;;4.87;86.30;95860.75;5007961;28;20452;-62
2022/02/03 18:11:31;;;;;;;13.48;12.02;;;;;;;4.49;89.34;95848.47;5011366;28;20133;-61
2022/02/03 18:30:06;;;;;;;15.43;13.45;;;;;;;4.34;90.37;95866.75;5011983;28;20048;-64
2022/02/03 18:32:41;;;;;;;17.17;15.25;;;;;;;4.31;91.03;95872.19;5006415;28;20541;-65
2022/02/03 18:51:16;;;;;;;32.42;22.40;;;;;;;4.08;93.01;95871.03;5013422;28;20144;-62
2022/02/03 18:56:22;;;;;;;28.38;21.02;;;;;;;4.03;93.18;95860.91;5011895;28;20044;-61
2022/02/03 20:08:53;;;;;;;88.43;60.13;;;;;;;3.62;94.23;95787.06;5010837;28;20050;-61
2022/02/03 20:11:22;;;;;;;63.53;43.00;;;;;;;3.60;93.88;95786.31;5008081;28;20068;-62
2022/02/03 20:13:47;;;;;;;46.50;34.88;;;;;;;3.52;94.08;95791.19;5009639;28;20088;-61
2022/02/03 20:16:17;;;;;;;45.10;31.30;;;;;;;3.68;94.62;95791.91;5010194;28;20432;-62
2022/02/03 20:18:42;;;;;;;41.25;30.90;;;;;;;3.91;92.80;95792.19;5009059;28;20089;-63
2022/02/03 20:21:08;;;;;;;38.22;29.98;;;;;;;3.70;94.01;95799.59;5009364;28;20112;-62
2022/02/03 20:23:39;;;;;;;33.85;26.13;;;;;;;3.60;94.36;95788.09;5010057;28;20022;-63
2022/02/03 20:26:04;;;;;;;41.00;26.48;;;;;;;3.57;94.21;95794.31;5008439;28;20117;-62
2022/02/03 20:28:30;;;;;;;32.63;23.15;;;;;;;3.63;94.08;95785.31;5008253;28;20120;-64
2022/02/03 20:30:56;;;;;;;38.38;27.08;;;;;;;3.72;93.55;95788.16;5009259;28;20041;-64
2022/02/03 20:33:21;;;;;;;45.00;30.77;;;;;;;3.65;93.78;95786.03;5009453;28;20033;-63
2022/02/03 20:35:48;;;;;;;32.05;22.92;;;;;;;3.53;94.43;95778.06;5009990;28;20528;-63
2022/02/03 20:38:15;;;;;;;26.08;19.80;;;;;;;3.43;94.92;95770.00;5010585;28;20072;-64
2022/02/03 20:40:42;;;;;;;28.75;20.33;;;;;;;3.45;95.17;95764.69;5010269;28;20034;-65
2022/02/03 20:43:08;;;;;;;28.65;21.35;;;;;;;3.53;94.42;95769.41;5009977;28;20026;-62
2022/02/03 20:45:34;;;;;;;24.90;19.52;;;;;;;3.50;94.67;95759.22;5010244;28;20509;-67
2022/02/03 20:47:59;;;;;;;29.15;20.88;;;;;;;3.78;93.20;95755.69;5007636;28;20046;-67
2022/02/03 20:50:25;;;;;;;24.63;18.60;;;;;;;3.87;92.74;95754.25;5011126;28;20026;-62
2022/02/03 20:52:50;;;;;;;21.98;16.42;;;;;;;3.85;92.18;95749.13;5010478;28;20045;-65
2022/02/03 20:55:16;;;;;;;29.17;19.58;;;;;;;3.72;93.27;95749.09;5009391;28;20034;-66
2022/02/03 20:57:42;;;;;;;27.80;22.17;;;;;;;3.60;94.00;95760.28;5009802;28;20504;-64
2022/02/03 21:00:26;;;;;;;47.40;37.25;;;;;;;3.95;92.08;95769.38;5008329;28;20489;-64
2022/02/03 21:02:58;;;;;;;48.05;36.47;;;;;;;3.65;93.25;95786.88;5010443;28;20148;-63
2022/02/03 21:05:24;;;;;;;37.80;28.77;;;;;;;3.64;92.89;95795.59;5009724;28;20416;-64
2022/02/03 21:07:50;;;;;;;45.08;34.95;;;;;;;3.62;93.59;95813.09;5007119;28;20037;-64
2022/02/03 21:10:21;;;;;;;48.63;35.65;;;;;;;3.63;92.97;95824.34;5008665;28;20116;-61
2022/02/03 21:12:47;;;;;;;38.15;28.95;;;;;;;3.62;93.73;95839.13;5007215;28;20034;-63
2022/02/03 21:15:20;;;;;;;23.95;18.77;;;;;;;3.63;93.46;95834.78;5006874;28;20040;-64
2022/02/03 21:17:46;;;;;;;18.20;15.82;;;;;;;3.61;93.28;95837.47;5006727;28;20113;-62
2022/02/03 21:20:14;;;;;;;21.80;18.05;;;;;;;3.64;92.99;95828.63;5006324;28;20555;-62
2022/02/03 21:22:40;;;;;;;19.23;15.63;;;;;;;3.46;93.62;95828.00;5005345;28;20040;-63
2022/02/03 21:25:23;;;;;;;17.25;15.00;;;;;;;3.36;94.15;95832.94;5007618;28;20420;-63
2022/02/03 21:27:50;;;;;;;16.10;14.30;;;;;;;3.27;94.42;95831.75;5007875;28;20054;-61
2022/02/03 21:30:18;;;;;;;18.73;14.45;;;;;;;3.33;94.12;95841.75;5008482;28;20045;-61
2022/02/03 21:32:43;;;;;;;17.15;14.73;;;;;;;3.31;93.95;95841.03;5008572;28;20030;-61
2022/02/03 21:35:10;;;;;;;19.65;14.50;;;;;;;3.11;94.95;95850.88;5008857;28;20041;-61
2022/02/03 21:37:37;;;;;;;18.92;15.48;;;;;;;3.02;95.03;95846.22;5005249;28;20445;-62
2022/02/03 21:40:03;;;;;;;28.27;22.52;;;;;;;2.96;95.04;95846.56;5010883;28;20048;-62
2022/02/03 21:42:29;;;;;;;28.33;21.05;;;;;;;2.89;95.33;95835.72;5011300;28;20030;-62
2022/02/03 21:44:54;;;;;;;25.52;20.33;;;;;;;2.83;95.83;95836.06;5011272;28;20025;-62
2022/02/03 21:47:20;;;;;;;27.33;22.90;;;;;;;2.80;95.49;95833.66;5010905;28;20923;-62
2022/02/03 21:49:45;;;;;;;27.52;24.08;;;;;;;2.77;96.20;95819.09;5010714;28;20030;-61
2022/02/03 21:52:18;;;;;;;32.97;26.73;;;;;;;2.73;95.77;95820.16;5010879;28;20053;-61
2022/02/03 21:54:44;;;;;;;30.50;23.42;;;;;;;2.61;95.34;95810.50;5012017;28;20034;-61
2022/02/03 21:57:10;;;;;;;30.52;24.35;;;;;;;2.49;96.22;95802.50;5011608;28;20033;-61
2022/02/03 21:59:36;;;;;;;28.05;23.10;;;;;;;2.46;96.02;95809.66;5011357;28;20032;-61
2022/02/03 22:02:02;;;;;;;25.63;21.75;;;;;;;2.39;95.86;95809.16;5010746;28;20026;-61
2022/02/03 22:04:28;;;;;;;23.42;20.88;;;;;;;2.27;96.26;95806.31;5011400;28;20670;-61
2022/02/03 22:06:53;;;;;;;24.63;20.60;;;;;;;2.21;96.63;95806.69;5011726;28;20030;-61
2022/02/03 22:09:18;;;;;;;35.08;25.27;;;;;;;2.60;94.48;95806.25;5010999;28;20459;-61
2022/02/03 22:11:44;;;;;;;38.45;27.55;;;;;;;2.40;95.35;95810.84;5009625;28;20081;-62
2022/02/03 22:14:09;;;;;;;46.20;33.17;;;;;;;2.62;93.97;95813.00;5010998;28;20113;-61
2022/02/03 22:16:36;;;;;;;47.63;33.53;;;;;;;2.48;94.25;95811.22;5011546;28;20133;-61
2022/02/03 22:19:02;;;;;;;50.28;32.08;;;;;;;2.34;94.89;95814.63;5011425;28;20048;-61
2022/02/03 22:50:29;;;;;;;40.45;22.35;;;;;;;1.74;97.09;95875.91;4949805;28;20031;-61
2022/02/03 22:52:54;;;;;;;47.80;24.85;;;;;;;1.76;97.32;95878.44;4997015;28;20080;-61
2022/02/03 22:55:20;;;;;;;43.63;24.30;;;;;;;1.69;97.93;95871.00;5011080;28;20037;-61
2022/02/03 22:57:59;;;;;;;42.92;23.63;;;;;;;1.71;97.87;95881.28;5011123;28;20095;-61
2022/02/03 23:00:52;;;;;;;35.78;23.60;;;;;;;1.64;97.01;95879.94;5011878;28;20080;-61
2022/02/03 23:03:18;;;;;;;40.95;24.80;;;;;;;1.56;97.23;95882.94;5010449;28;20081;-61
2022/02/03 23:05:43;;;;;;;40.63;24.55;;;;;;;1.55;97.14;95884.72;5012605;28;20034;-61